GMMH

Dakhla Airport

Dakhla, Western Sahara
METAR GMMH 161800Z 03022KT 8000 NSC 19/09 Q1017 NOSIG
Observed Flight Rules
Jan-16 @ 18:00 UTC (26 minutes ago) Marginal Visual Flight Rules
Wind Visibility Clouds
30° at 22 knots 7,998 meters
  • Clear skies
Temperatures Readings
Current 19°C / 66°F
Dewpoint 9°C / 48°F
Humidity 52%
Altimeter 30.03" Hg
Pressure 1016.92 hPa
Elevation 11
METAR GMMH 161800Z 03022KT 8000 NSC 19/09 Q1017 NOSIG
Observed Flight Rules
Jan-16 @ 18:00 UTC
(26 minutes ago)
MVFR
Wind Visibility
30° at 22 knots 7,998 meters
Clouds
  • Clear skies
Temperature Dewpoint
19°C / 66°F 9°C / 48°F
Humidity Altimeter Pressure
52% 30.03" Hg 1016.92 hPa